createdAt,value
2023-08-04T00:00:30.329Z,2.33
2023-08-04T00:02:58.376Z,1.98
2023-08-04T00:05:25.415Z,1.48
2023-08-04T00:07:52.295Z,1.73
2023-08-04T00:10:19.425Z,6.13
2023-08-04T00:12:47.076Z,1.15
2023-08-04T00:15:14.058Z,2.80
2023-08-04T00:17:41.073Z,1.25
2023-08-04T00:20:09.888Z,1.42
2023-08-04T00:22:37.123Z,2.40
2023-08-04T00:25:04.564Z,1.67
2023-08-04T00:27:31.761Z,2.20
2023-08-04T00:29:58.654Z,2.90
2023-08-04T00:32:25.491Z,1.77
2023-08-04T00:34:52.329Z,1.83
2023-08-04T00:37:19.171Z,3.63
2023-08-04T00:39:45.984Z,1.77
2023-08-04T00:42:12.832Z,2.92
2023-08-04T00:44:39.722Z,2.50
2023-08-04T00:47:07.073Z,1.98
2023-08-04T00:49:35.479Z,1.77
2023-08-04T00:56:57.028Z,4.20
2023-08-04T00:59:23.969Z,1.58
2023-08-04T01:01:51.290Z,1.63
2023-08-04T01:04:20.188Z,1.85
2023-08-04T01:07:08.137Z,1.92
2023-08-04T01:09:56.127Z,1.95
2023-08-04T01:12:27.602Z,2.15
2023-08-04T01:14:58.049Z,2.30
2023-08-04T01:17:29.871Z,1.92
2023-08-04T01:19:58.181Z,1.73
2023-08-04T01:22:26.336Z,4.15
2023-08-04T01:24:54.758Z,1.63
2023-08-04T01:27:45.990Z,3.75
2023-08-04T01:30:22.658Z,6.28
2023-08-04T01:32:49.697Z,1.40
2023-08-04T01:35:17.666Z,1.63
2023-08-04T01:37:45.244Z,5.97
2023-08-04T01:40:13.292Z,1.55
2023-08-04T01:42:41.097Z,1.90
2023-08-04T01:45:08.695Z,1.60
2023-08-04T01:47:35.719Z,1.75
2023-08-04T01:50:03.900Z,1.88
2023-08-04T01:52:30.976Z,3.97
2023-08-04T01:54:58.685Z,1.67
2023-08-04T01:57:25.550Z,1.65
2023-08-04T01:59:52.395Z,2.03
2023-08-04T02:02:19.301Z,2.00
2023-08-04T02:04:46.243Z,8.73
2023-08-04T02:07:13.175Z,2.40
2023-08-04T02:09:40.033Z,1.38
2023-08-04T02:12:07.250Z,3.65
2023-08-04T02:14:35.081Z,3.65
2023-08-04T02:17:03.746Z,1.88
2023-08-04T02:19:39.448Z,1.95
2023-08-04T02:22:06.363Z,2.55
2023-08-04T02:24:33.235Z,2.70
2023-08-04T02:27:00.073Z,2.05
2023-08-04T02:29:27.068Z,2.22
2023-08-04T02:31:53.991Z,2.65
2023-08-04T02:34:20.953Z,2.47
2023-08-04T02:36:47.894Z,4.07
2023-08-04T02:39:14.788Z,2.42
2023-08-04T02:41:41.786Z,2.38
2023-08-04T02:44:08.731Z,2.38
2023-08-04T02:46:35.696Z,3.83
2023-08-04T02:49:03.170Z,2.33
2023-08-04T02:51:31.540Z,2.55
2023-08-04T02:53:58.749Z,2.95
2023-08-04T02:56:25.840Z,2.65
2023-08-04T02:58:52.740Z,3.42
2023-08-04T03:01:19.630Z,4.07
2023-08-04T03:03:46.525Z,3.55
2023-08-04T03:06:13.382Z,3.83
2023-08-04T03:08:40.435Z,4.22
2023-08-04T03:11:11.485Z,4.13
2023-08-04T03:13:39.255Z,3.35
2023-08-04T03:16:06.364Z,4.63
2023-08-04T03:18:33.270Z,3.70
2023-08-04T03:21:05.359Z,4.80
2023-08-04T03:23:32.630Z,4.10
2023-08-04T03:25:59.810Z,4.10
2023-08-04T03:28:26.730Z,3.67
2023-08-04T03:30:53.633Z,3.67
2023-08-04T03:33:21.034Z,6.10
2023-08-04T03:38:15.066Z,3.70
2023-08-04T03:40:42.449Z,3.83
2023-08-04T03:45:36.325Z,3.75
2023-08-04T03:48:03.562Z,4.13
2023-08-04T03:50:30.556Z,3.95
2023-08-04T03:52:57.434Z,3.83
2023-08-04T03:55:24.320Z,4.05
2023-08-04T03:57:51.167Z,4.40
2023-08-04T04:00:18.127Z,4.35
2023-08-04T04:02:45.774Z,3.58
2023-08-04T04:05:12.745Z,3.95
2023-08-04T04:07:39.596Z,4.40
2023-08-04T04:10:07.667Z,3.97
2023-08-04T04:12:36.422Z,4.13
2023-08-04T04:15:05.712Z,4.70
2023-08-04T04:17:32.812Z,4.55
2023-08-04T04:22:26.807Z,4.05
2023-08-04T04:24:53.744Z,4.78
2023-08-04T04:27:20.667Z,5.25
2023-08-04T04:29:47.490Z,3.75
2023-08-04T04:32:14.316Z,4.53
2023-08-04T04:34:41.871Z,3.75
2023-08-04T04:37:08.818Z,7.07
2023-08-04T04:39:35.699Z,4.47
2023-08-04T04:42:04.632Z,4.88
2023-08-04T04:44:31.495Z,4.90
2023-08-04T04:46:58.391Z,4.68
2023-08-04T04:49:25.230Z,4.78
2023-08-04T04:51:52.080Z,5.18
2023-08-04T04:54:18.994Z,5.65
2023-08-04T04:56:48.920Z,3.88
2023-08-04T04:59:15.867Z,4.72
2023-08-04T05:01:42.790Z,5.20
2023-08-04T05:04:10.367Z,5.10
2023-08-04T05:06:37.229Z,4.15
2023-08-04T05:09:04.536Z,5.00
2023-08-04T05:13:58.542Z,4.80
2023-08-04T05:16:25.502Z,4.97
2023-08-04T05:18:52.419Z,8.48
2023-08-04T05:21:19.331Z,6.22
2023-08-04T05:23:46.198Z,5.40
2023-08-04T05:26:13.047Z,5.70
2023-08-04T05:28:39.937Z,10.50
2023-08-04T05:31:08.784Z,5.18
2023-08-04T05:33:35.746Z,5.22
2023-08-04T05:36:03.048Z,4.10
2023-08-04T05:41:01.341Z,5.05
2023-08-04T05:43:28.543Z,7.50
2023-08-04T05:45:55.451Z,5.53
2023-08-04T05:48:22.832Z,4.82
2023-08-04T05:50:49.881Z,4.18
2023-08-04T05:53:16.736Z,4.93
2023-08-04T05:55:43.651Z,5.45
2023-08-04T05:58:10.524Z,7.45
2023-08-04T06:00:37.445Z,5.13
2023-08-04T06:03:05.504Z,6.10
2023-08-04T06:05:32.745Z,6.60
2023-08-04T06:07:59.627Z,7.70
2023-08-04T06:10:26.786Z,5.40
2023-08-04T06:12:53.637Z,5.45
2023-08-04T06:15:20.691Z,6.25
2023-08-04T06:17:48.407Z,9.90
2023-08-04T06:20:15.594Z,6.35
2023-08-04T06:22:42.545Z,6.63
2023-08-04T06:25:09.678Z,6.93
2023-08-04T06:27:36.552Z,8.70
2023-08-04T06:30:03.741Z,12.00
2023-08-04T06:32:31.695Z,6.95
2023-08-04T06:34:58.528Z,7.57
2023-08-04T06:37:25.526Z,6.63
2023-08-04T06:39:53.287Z,7.05
2023-08-04T06:42:20.837Z,7.72
2023-08-04T06:44:47.749Z,10.60
2023-08-04T06:47:14.831Z,7.88
2023-08-04T06:49:42.936Z,6.97
2023-08-04T06:52:10.077Z,6.25
2023-08-04T06:54:38.202Z,8.38
2023-08-04T06:57:05.707Z,7.57
2023-08-04T06:59:32.874Z,6.05
2023-08-04T07:01:59.939Z,6.05
2023-08-04T07:04:27.112Z,8.38
2023-08-04T08:20:50.638Z,2.38
2023-08-04T08:23:17.440Z,2.80
2023-08-04T08:25:44.306Z,4.20
2023-08-04T08:28:11.075Z,2.55
2023-08-04T08:30:38.046Z,1.88
2023-08-04T08:33:04.963Z,2.53
2023-08-04T08:35:31.927Z,2.00
2023-08-04T08:37:58.725Z,2.85
2023-08-04T08:40:26.565Z,2.20
2023-08-04T08:42:55.442Z,1.80
2023-08-04T08:45:28.457Z,2.08
2023-08-04T08:47:56.899Z,1.73
2023-08-04T08:50:25.595Z,1.83
2023-08-04T08:52:59.857Z,1.70
2023-08-04T08:55:28.332Z,1.38
2023-08-04T08:57:57.254Z,1.17
2023-08-04T09:00:24.172Z,1.73
2023-08-04T09:02:51.564Z,1.30
2023-08-04T09:05:18.590Z,1.95
2023-08-04T09:07:45.662Z,3.03
2023-08-04T09:10:13.548Z,1.67
2023-08-04T09:12:45.326Z,1.30
2023-08-04T09:15:13.346Z,1.27
2023-08-04T09:17:41.901Z,1.13
2023-08-04T09:20:10.728Z,2.25
2023-08-04T09:22:43.611Z,0.85
2023-08-04T09:25:10.944Z,1.33
2023-08-04T09:27:39.476Z,1.30
2023-08-04T09:30:11.211Z,1.35
2023-08-04T09:32:51.000Z,1.48
2023-08-04T09:35:18.266Z,1.80
2023-08-04T09:42:43.897Z,1.02
2023-08-04T09:45:18.531Z,1.27
2023-08-04T09:47:52.276Z,0.93
2023-08-04T09:50:20.238Z,0.85
2023-08-04T09:52:47.544Z,0.63
2023-08-04T09:55:14.489Z,0.70
2023-08-04T09:57:43.029Z,1.02
2023-08-04T10:00:12.884Z,0.80
2023-08-04T10:02:40.370Z,1.27
2023-08-04T10:05:07.888Z,0.70
2023-08-04T10:07:35.891Z,2.65
2023-08-04T10:10:06.473Z,0.90
2023-08-04T10:12:35.411Z,1.15
2023-08-04T10:15:02.667Z,1.35
2023-08-04T10:17:29.724Z,1.92
2023-08-04T10:22:34.546Z,1.17
2023-08-04T10:25:01.645Z,5.53
2023-08-04T10:30:04.291Z,1.20
2023-08-04T10:32:37.337Z,1.60
2023-08-04T10:35:17.331Z,1.02
2023-08-04T10:37:50.267Z,0.70
2023-08-04T10:40:40.109Z,0.90
2023-08-04T10:43:09.606Z,0.68
2023-08-04T10:46:11.739Z,0.80
2023-08-04T10:48:42.203Z,2.53
2023-08-04T10:51:09.582Z,1.35
2023-08-04T10:53:36.745Z,0.70
2023-08-04T10:58:35.033Z,0.88
2023-08-04T11:01:02.457Z,0.82
2023-08-04T11:03:34.117Z,0.70
2023-08-04T11:06:01.642Z,0.85
2023-08-04T11:08:28.683Z,0.52
2023-08-04T11:10:57.711Z,6.03
2023-08-04T11:13:26.263Z,1.98
2023-08-04T11:15:56.262Z,0.40
2023-08-04T11:18:30.624Z,0.68
2023-08-04T11:21:02.266Z,0.55
2023-08-04T11:23:30.942Z,0.60
2023-08-04T11:25:59.359Z,0.70
2023-08-04T11:28:26.892Z,0.70
2023-08-04T11:31:14.027Z,0.43
2023-08-04T11:33:45.581Z,0.75
2023-08-04T11:36:12.457Z,1.88
2023-08-04T11:38:39.685Z,0.90
2023-08-04T11:41:12.290Z,0.50
2023-08-04T11:43:39.380Z,0.60
2023-08-04T11:48:36.893Z,0.50
2023-08-04T11:51:08.076Z,0.50
2023-08-04T11:53:35.396Z,0.43
2023-08-04T11:56:04.043Z,0.50
2023-08-04T11:58:34.968Z,0.60
2023-08-04T12:01:02.540Z,0.75
2023-08-04T12:04:01.920Z,0.52
2023-08-04T12:06:30.017Z,0.60
2023-08-04T12:09:00.754Z,0.60
2023-08-04T12:11:28.766Z,0.50
2023-08-04T12:14:13.695Z,0.40
2023-08-04T12:17:00.223Z,0.40
2023-08-04T12:22:01.244Z,1.23
2023-08-04T12:24:29.597Z,2.28
2023-08-04T12:26:56.562Z,0.40
2023-08-04T12:29:23.398Z,3.53
2023-08-04T12:31:52.805Z,0.43
2023-08-04T12:34:22.632Z,0.40
2023-08-04T12:36:51.163Z,0.40
2023-08-04T12:39:18.040Z,0.77
2023-08-04T12:41:44.945Z,0.47
2023-08-04T12:44:12.275Z,0.52
2023-08-04T12:46:39.450Z,0.63
2023-08-04T12:49:06.462Z,0.60
2023-08-04T12:51:33.378Z,0.40
2023-08-04T12:54:00.242Z,0.70
2023-08-04T12:56:27.030Z,0.40
2023-08-04T12:58:53.877Z,0.50
2023-08-04T13:01:20.701Z,0.30
2023-08-04T13:03:47.525Z,0.47
2023-08-04T13:08:41.144Z,4.28
2023-08-04T13:11:07.968Z,0.40
2023-08-04T13:13:34.776Z,0.95
2023-08-04T13:16:01.660Z,0.35
2023-08-04T13:20:55.329Z,0.40
2023-08-04T13:23:22.177Z,0.47
2023-08-04T13:28:15.913Z,0.50
2023-08-04T13:30:45.956Z,0.70
2023-08-04T13:33:12.913Z,0.50
2023-08-04T13:35:39.861Z,0.95
2023-08-04T13:38:06.712Z,0.70
2023-08-04T13:40:33.512Z,0.47
2023-08-04T13:43:00.374Z,0.50
2023-08-04T13:45:27.599Z,0.57
2023-08-04T13:47:54.458Z,1.17
2023-08-04T13:50:21.368Z,0.50
2023-08-04T13:52:48.254Z,1.40
2023-08-04T13:55:15.139Z,0.55
2023-08-04T13:57:42.498Z,0.60
2023-08-04T14:00:13.548Z,0.55
2023-08-04T14:02:41.339Z,0.93
2023-08-04T14:05:09.149Z,1.23
2023-08-04T14:07:38.916Z,0.60
2023-08-04T14:10:08.989Z,1.08
2023-08-04T14:12:35.840Z,0.90
2023-08-04T14:15:02.806Z,0.93
2023-08-04T14:19:56.526Z,0.63
2023-08-04T14:22:23.552Z,0.60
2023-08-04T14:27:30.203Z,0.85
2023-08-04T14:29:58.104Z,3.63
2023-08-04T14:34:52.393Z,0.98
2023-08-04T14:37:19.547Z,0.90
2023-08-04T14:39:46.943Z,0.80
2023-08-04T14:42:14.315Z,0.80
2023-08-04T14:47:08.345Z,1.08
2023-08-04T14:49:35.301Z,0.70
2023-08-04T14:52:02.670Z,0.60
2023-08-04T14:54:29.559Z,3.55
2023-08-04T14:56:56.515Z,1.17
2023-08-04T14:59:23.597Z,0.80
2023-08-04T15:04:18.315Z,0.73
2023-08-04T15:06:45.772Z,2.47
2023-08-04T15:11:39.765Z,0.90
2023-08-04T15:14:07.296Z,1.10
2023-08-04T15:16:34.312Z,0.73
2023-08-04T15:19:01.437Z,0.60
2023-08-04T15:21:28.325Z,0.40
2023-08-04T15:23:55.202Z,0.50
2023-08-04T15:26:22.911Z,0.50
2023-08-04T15:28:50.916Z,0.40
2023-08-04T15:31:18.041Z,0.32
2023-08-04T15:38:38.838Z,0.90
2023-08-04T15:41:10.354Z,1.90
2023-08-04T15:43:38.997Z,0.35
2023-08-04T15:46:06.822Z,0.40
2023-08-04T15:48:35.272Z,0.32
2023-08-04T15:51:02.496Z,0.45
2023-08-04T15:53:30.801Z,0.47
2023-08-04T15:55:58.055Z,0.40
2023-08-04T15:58:25.625Z,0.50
2023-08-04T16:00:53.223Z,0.40
2023-08-04T16:03:20.172Z,0.40
2023-08-04T16:05:47.915Z,0.32
2023-08-04T16:08:14.989Z,0.40
2023-08-04T16:15:35.842Z,0.40
2023-08-04T16:18:02.744Z,0.75
2023-08-04T16:20:29.652Z,0.50
2023-08-04T16:22:57.767Z,0.40
2023-08-04T16:25:25.771Z,0.50
2023-08-04T16:27:52.677Z,0.60
2023-08-04T16:30:19.584Z,0.50
2023-08-04T16:32:46.577Z,0.47
2023-08-04T16:37:40.222Z,0.50
2023-08-04T16:40:07.749Z,1.00
2023-08-04T16:42:34.586Z,0.32
2023-08-04T16:45:01.455Z,0.50
2023-08-04T16:47:28.349Z,0.68
2023-08-04T16:49:55.278Z,0.60
2023-08-04T16:52:22.150Z,1.30
2023-08-04T16:54:49.079Z,0.40
2023-08-04T16:57:15.911Z,2.97
2023-08-04T16:59:43.286Z,0.50
2023-08-04T17:02:10.096Z,0.60
2023-08-04T17:09:31.281Z,0.63
2023-08-04T17:11:58.120Z,4.65
2023-08-04T17:14:24.988Z,0.75
2023-08-04T17:16:51.933Z,0.50
2023-08-04T17:19:18.998Z,0.85
2023-08-04T17:21:45.804Z,0.60
2023-08-04T17:24:13.406Z,0.65
2023-08-04T17:26:40.270Z,0.60
2023-08-04T17:29:07.530Z,0.68
2023-08-04T17:31:34.748Z,0.80
2023-08-04T17:41:21.979Z,0.45
2023-08-04T17:43:48.934Z,0.85
2023-08-04T17:46:15.940Z,0.60
2023-08-04T17:48:42.860Z,0.70
2023-08-04T17:51:09.744Z,0.50
2023-08-04T17:53:36.569Z,0.50
2023-08-04T17:56:04.194Z,0.45
2023-08-04T17:58:31.052Z,0.57
2023-08-04T18:00:58.197Z,0.80
2023-08-04T18:05:54.509Z,0.52
2023-08-04T18:08:21.536Z,1.35
2023-08-04T18:10:50.056Z,0.50
2023-08-04T18:13:19.966Z,0.50
2023-08-04T18:15:49.513Z,0.60
2023-08-04T18:18:16.365Z,0.47
2023-08-04T18:20:43.213Z,0.60
2023-08-04T18:23:10.248Z,0.50
2023-08-04T18:25:38.985Z,0.50
2023-08-04T18:28:06.814Z,2.33
2023-08-04T18:30:34.545Z,0.60
2023-08-04T18:33:01.727Z,0.82
2023-08-04T18:40:22.468Z,0.40
2023-08-04T18:42:49.365Z,0.57
2023-08-04T18:45:16.858Z,0.52
2023-08-04T18:47:43.905Z,0.70
2023-08-04T18:50:11.401Z,0.80
2023-08-04T18:52:38.586Z,0.57
2023-08-04T18:57:33.582Z,0.90
2023-08-04T19:00:00.500Z,0.57
2023-08-04T19:02:27.445Z,0.60
2023-08-04T19:04:54.361Z,0.70
2023-08-04T19:07:21.236Z,0.60
2023-08-04T19:09:48.309Z,0.70
2023-08-04T19:12:15.231Z,0.75
2023-08-04T19:14:42.274Z,0.70
2023-08-04T19:17:09.148Z,2.05
2023-08-04T19:19:36.156Z,0.65
2023-08-04T19:22:03.173Z,1.38
2023-08-04T19:24:30.163Z,1.02
2023-08-04T19:26:57.115Z,0.73
2023-08-04T19:29:24.018Z,0.95
2023-08-04T19:31:51.060Z,0.85
2023-08-04T19:34:17.964Z,1.00
2023-08-04T19:36:45.786Z,0.80
2023-08-04T19:39:13.751Z,0.60
2023-08-04T19:41:41.740Z,0.70
2023-08-04T19:44:08.715Z,0.70
2023-08-04T19:46:35.746Z,0.60
2023-08-04T19:49:02.990Z,0.50
2023-08-04T19:56:23.668Z,2.03
2023-08-04T19:58:51.169Z,0.80
2023-08-04T20:01:18.183Z,0.88
2023-08-04T20:03:46.225Z,0.82
2023-08-04T20:06:13.783Z,0.68
2023-08-04T20:08:40.746Z,0.70
2023-08-04T20:11:08.478Z,0.93
2023-08-04T20:13:37.016Z,0.82
2023-08-04T20:16:09.225Z,0.90
2023-08-04T20:18:36.385Z,3.72
2023-08-04T20:21:04.124Z,0.73
2023-08-04T20:23:30.962Z,0.77
2023-08-04T20:25:58.012Z,0.70
2023-08-04T20:28:24.888Z,0.80
2023-08-04T20:30:59.567Z,0.90
2023-08-04T20:33:26.569Z,0.70
2023-08-04T20:35:59.940Z,1.00
2023-08-04T20:38:27.246Z,0.90
2023-08-04T20:43:41.835Z,1.30
2023-08-04T20:46:09.984Z,6.47
2023-08-04T20:48:37.382Z,0.85
2023-08-04T20:53:37.077Z,1.02
2023-08-04T20:56:04.345Z,1.85
2023-08-04T21:01:08.209Z,0.90
2023-08-04T21:03:35.602Z,1.00
2023-08-04T21:06:05.338Z,1.02
2023-08-04T21:08:32.697Z,1.17
2023-08-04T21:11:00.267Z,1.05
2023-08-04T21:13:27.278Z,1.20
2023-08-04T21:15:54.483Z,1.45
2023-08-04T21:18:21.413Z,1.10
2023-08-04T21:20:48.564Z,1.02
2023-08-04T21:25:43.853Z,8.25
2023-08-04T21:28:10.836Z,1.08
2023-08-04T21:30:37.971Z,0.93
2023-08-04T21:33:07.961Z,0.98
2023-08-04T21:35:35.220Z,1.30
2023-08-04T21:38:02.182Z,2.33
2023-08-04T21:40:29.306Z,1.02
2023-08-04T21:42:56.189Z,1.08
2023-08-04T21:45:23.075Z,1.02
2023-08-04T21:47:49.992Z,1.20
2023-08-04T21:50:16.992Z,1.23
2023-08-04T21:52:44.070Z,1.85
2023-08-04T21:55:11.010Z,0.93
2023-08-04T21:57:37.917Z,1.15
2023-08-04T22:00:13.226Z,1.15
2023-08-04T22:02:41.121Z,1.70
2023-08-04T22:05:08.210Z,1.13
2023-08-04T22:07:35.066Z,1.63
2023-08-04T22:10:02.211Z,1.60
2023-08-04T22:12:29.119Z,0.82
2023-08-04T22:14:58.573Z,1.88
2023-08-04T22:17:25.577Z,1.00
2023-08-04T22:19:52.614Z,2.70
2023-08-04T22:22:19.496Z,6.13
2023-08-04T22:24:46.343Z,1.00
2023-08-04T22:27:15.109Z,0.88
2023-08-04T22:29:42.623Z,1.75
2023-08-04T22:32:09.876Z,3.05
2023-08-04T22:37:03.878Z,0.90
2023-08-04T22:41:57.549Z,1.10
2023-08-04T22:44:24.402Z,0.90
2023-08-04T22:46:51.480Z,1.08
2023-08-04T22:51:45.297Z,1.20
2023-08-04T22:54:27.184Z,1.20
2023-08-04T22:56:59.117Z,1.20
2023-08-04T22:59:25.986Z,1.60
2023-08-04T23:01:52.992Z,1.50
2023-08-04T23:04:20.047Z,1.20
2023-08-04T23:06:47.170Z,1.33
2023-08-04T23:11:40.933Z,1.40
2023-08-04T23:14:07.792Z,1.88
2023-08-04T23:16:34.814Z,1.67
2023-08-04T23:19:01.706Z,1.08
2023-08-04T23:21:28.566Z,1.35
2023-08-04T23:23:55.412Z,1.60
2023-08-04T23:26:22.285Z,1.23
2023-08-04T23:28:49.192Z,1.52
2023-08-04T23:31:16.094Z,0.95
2023-08-04T23:33:43.001Z,1.60
2023-08-04T23:36:10.024Z,1.15
2023-08-04T23:38:36.896Z,1.33
2023-08-04T23:41:04.447Z,1.10
2023-08-04T23:43:31.316Z,1.23
2023-08-04T23:45:58.275Z,1.45
2023-08-04T23:48:25.188Z,0.90
2023-08-04T23:50:52.412Z,1.00
2023-08-04T23:53:22.115Z,0.88
2023-08-04T23:55:49.195Z,2.35
2023-08-04T23:58:16.527Z,1.30
